sensor_id;sensor_type;location;lat;lon;timestamp;temperature;humidity
4054;DHT22;2042;47.956;9.222;2024-02-14T00:02:13;-1.60;46.40
4054;DHT22;2042;47.956;9.222;2024-02-14T00:04:38;-1.60;46.50
4054;DHT22;2042;47.956;9.222;2024-02-14T00:07:04;-1.60;46.70
4054;DHT22;2042;47.956;9.222;2024-02-14T00:09:30;-1.70;45.00
4054;DHT22;2042;47.956;9.222;2024-02-14T00:11:56;-1.70;44.80
4054;DHT22;2042;47.956;9.222;2024-02-14T00:14:22;-1.80;45.20
4054;DHT22;2042;47.956;9.222;2024-02-14T00:16:47;-1.80;46.20
4054;DHT22;2042;47.956;9.222;2024-02-14T00:19:13;-1.70;46.70
4054;DHT22;2042;47.956;9.222;2024-02-14T00:21:39;-1.60;47.70
4054;DHT22;2042;47.956;9.222;2024-02-14T00:24:06;-1.60;47.60
4054;DHT22;2042;47.956;9.222;2024-02-14T00:26:32;-1.50;49.20
4054;DHT22;2042;47.956;9.222;2024-02-14T00:28:58;-1.40;48.80
4054;DHT22;2042;47.956;9.222;2024-02-14T00:31:23;-1.40;49.40
4054;DHT22;2042;47.956;9.222;2024-02-14T00:33:49;-1.40;50.40
4054;DHT22;2042;47.956;9.222;2024-02-14T00:36:15;-1.50;48.90
4054;DHT22;2042;47.956;9.222;2024-02-14T00:38:41;-1.50;48.70
4054;DHT22;2042;47.956;9.222;2024-02-14T00:41:06;-1.50;48.10
4054;DHT22;2042;47.956;9.222;2024-02-14T00:43:32;-1.50;46.40
4054;DHT22;2042;47.956;9.222;2024-02-14T00:45:57;-1.50;46.60
4054;DHT22;2042;47.956;9.222;2024-02-14T00:48:23;-1.40;46.80
4054;DHT22;2042;47.956;9.222;2024-02-14T00:50:49;-1.40;47.60
4054;DHT22;2042;47.956;9.222;2024-02-14T00:53:15;-1.30;48.20
4054;DHT22;2042;47.956;9.222;2024-02-14T00:55:40;-1.20;48.90
4054;DHT22;2042;47.956;9.222;2024-02-14T00:58:06;-1.10;49.10
4054;DHT22;2042;47.956;9.222;2024-02-14T01:00:32;-1.10;49.10
4054;DHT22;2042;47.956;9.222;2024-02-14T01:02:58;-0.90;49.60
4054;DHT22;2042;47.956;9.222;2024-02-14T01:05:24;-0.80;49.30
4054;DHT22;2042;47.956;9.222;2024-02-14T01:07:51;-0.50;49.70
4054;DHT22;2042;47.956;9.222;2024-02-14T01:10:19;0.00;51.00
4054;DHT22;2042;47.956;9.222;2024-02-14T01:12:45;0.20;51.60
4054;DHT22;2042;47.956;9.222;2024-02-14T01:15:10;0.10;51.10
4054;DHT22;2042;47.956;9.222;2024-02-14T01:17:36;0.10;50.90
4054;DHT22;2042;47.956;9.222;2024-02-14T01:20:04;0.10;50.80
4054;DHT22;2042;47.956;9.222;2024-02-14T01:22:30;0.10;51.50
4054;DHT22;2042;47.956;9.222;2024-02-14T01:24:55;0.20;52.30
4054;DHT22;2042;47.956;9.222;2024-02-14T01:27:21;0.30;52.90
4054;DHT22;2042;47.956;9.222;2024-02-14T01:29:48;0.40;53.90
4054;DHT22;2042;47.956;9.222;2024-02-14T01:32:14;0.60;54.70
4054;DHT22;2042;47.956;9.222;2024-02-14T01:34:39;0.70;56.10
4054;DHT22;2042;47.956;9.222;2024-02-14T01:37:08;1.00;60.80
4054;DHT22;2042;47.956;9.222;2024-02-14T01:39:35;1.20;70.60
4054;DHT22;2042;47.956;9.222;2024-02-14T01:42:01;1.40;64.00
4054;DHT22;2042;47.956;9.222;2024-02-14T01:44:26;1.60;62.50
4054;DHT22;2042;47.956;9.222;2024-02-14T01:46:52;1.70;61.60
4054;DHT22;2042;47.956;9.222;2024-02-14T01:49:18;1.60;60.90
4054;DHT22;2042;47.956;9.222;2024-02-14T01:51:45;1.60;60.80
4054;DHT22;2042;47.956;9.222;2024-02-14T01:54:12;1.40;59.40
4054;DHT22;2042;47.956;9.222;2024-02-14T01:56:41;1.30;59.30
4054;DHT22;2042;47.956;9.222;2024-02-14T01:59:08;1.20;59.30
4054;DHT22;2042;47.956;9.222;2024-02-14T02:01:34;1.20;58.90
4054;DHT22;2042;47.956;9.222;2024-02-14T02:04:01;1.20;59.10
4054;DHT22;2042;47.956;9.222;2024-02-14T02:06:27;1.30;59.40
4054;DHT22;2042;47.956;9.222;2024-02-14T02:08:54;1.40;60.10
4054;DHT22;2042;47.956;9.222;2024-02-14T02:11:19;1.40;60.00
4054;DHT22;2042;47.956;9.222;2024-02-14T02:13:45;1.40;59.70
4054;DHT22;2042;47.956;9.222;2024-02-14T02:16:11;1.40;60.50
4054;DHT22;2042;47.956;9.222;2024-02-14T02:18:38;1.50;61.10
4054;DHT22;2042;47.956;9.222;2024-02-14T02:21:03;1.50;60.30
4054;DHT22;2042;47.956;9.222;2024-02-14T02:23:33;1.60;60.00
4054;DHT22;2042;47.956;9.222;2024-02-14T02:25:59;1.50;59.50
4054;DHT22;2042;47.956;9.222;2024-02-14T02:28:25;1.70;60.10
4054;DHT22;2042;47.956;9.222;2024-02-14T02:30:50;1.70;54.20
4054;DHT22;2042;47.956;9.222;2024-02-14T02:33:19;1.90;52.30
4054;DHT22;2042;47.956;9.222;2024-02-14T02:35:44;2.00;52.70
4054;DHT22;2042;47.956;9.222;2024-02-14T02:38:11;2.00;52.60
4054;DHT22;2042;47.956;9.222;2024-02-14T02:40:37;2.00;52.00
4054;DHT22;2042;47.956;9.222;2024-02-14T02:43:03;1.80;51.40
4054;DHT22;2042;47.956;9.222;2024-02-14T02:45:28;1.80;51.60
4054;DHT22;2042;47.956;9.222;2024-02-14T02:47:54;1.80;51.60
4054;DHT22;2042;47.956;9.222;2024-02-14T02:50:21;1.80;51.70
4054;DHT22;2042;47.956;9.222;2024-02-14T02:52:47;1.80;51.70
4054;DHT22;2042;47.956;9.222;2024-02-14T02:55:13;1.90;51.90
4054;DHT22;2042;47.956;9.222;2024-02-14T02:57:43;1.90;51.90
4054;DHT22;2042;47.956;9.222;2024-02-14T03:00:09;1.90;51.80
4054;DHT22;2042;47.956;9.222;2024-02-14T03:02:37;1.80;51.40
4054;DHT22;2042;47.956;9.222;2024-02-14T03:05:12;1.60;50.90
4054;DHT22;2042;47.956;9.222;2024-02-14T03:07:48;1.50;50.10
4054;DHT22;2042;47.956;9.222;2024-02-14T03:10:16;1.30;49.40
4054;DHT22;2042;47.956;9.222;2024-02-14T03:12:49;1.20;49.10
4054;DHT22;2042;47.956;9.222;2024-02-14T03:15:15;1.10;49.00
4054;DHT22;2042;47.956;9.222;2024-02-14T03:17:41;1.00;48.50
4054;DHT22;2042;47.956;9.222;2024-02-14T03:20:08;1.00;48.60
4054;DHT22;2042;47.956;9.222;2024-02-14T03:22:43;0.80;47.50
4054;DHT22;2042;47.956;9.222;2024-02-14T03:25:16;0.60;46.20
4054;DHT22;2042;47.956;9.222;2024-02-14T03:27:42;0.40;45.90
4054;DHT22;2042;47.956;9.222;2024-02-14T03:30:11;0.20;44.80
4054;DHT22;2042;47.956;9.222;2024-02-14T03:32:38;0.20;46.10
4054;DHT22;2042;47.956;9.222;2024-02-14T03:35:04;0.30;47.10
4054;DHT22;2042;47.956;9.222;2024-02-14T03:37:31;0.50;47.80
4054;DHT22;2042;47.956;9.222;2024-02-14T03:39:57;0.60;48.30
4054;DHT22;2042;47.956;9.222;2024-02-14T03:42:23;0.60;47.90
4054;DHT22;2042;47.956;9.222;2024-02-14T03:44:48;0.50;47.30
4054;DHT22;2042;47.956;9.222;2024-02-14T03:47:14;0.40;46.50
4054;DHT22;2042;47.956;9.222;2024-02-14T03:49:40;0.30;46.10
4054;DHT22;2042;47.956;9.222;2024-02-14T03:52:06;0.20;46.00
4054;DHT22;2042;47.956;9.222;2024-02-14T03:54:36;0.10;46.00
4054;DHT22;2042;47.956;9.222;2024-02-14T03:57:02;0.20;46.80
4054;DHT22;2042;47.956;9.222;2024-02-14T03:59:29;0.30;47.70
4054;DHT22;2042;47.956;9.222;2024-02-14T04:01:55;0.50;48.70
4054;DHT22;2042;47.956;9.222;2024-02-14T04:04:21;0.70;50.10
4054;DHT22;2042;47.956;9.222;2024-02-14T04:06:48;0.80;49.90
4054;DHT22;2042;47.956;9.222;2024-02-14T04:09:13;0.90;50.20
4054;DHT22;2042;47.956;9.222;2024-02-14T04:11:39;0.90;49.60
4054;DHT22;2042;47.956;9.222;2024-02-14T04:14:05;0.80;49.00
4054;DHT22;2042;47.956;9.222;2024-02-14T04:16:30;0.80;49.40
4054;DHT22;2042;47.956;9.222;2024-02-14T04:18:56;0.90;50.30
4054;DHT22;2042;47.956;9.222;2024-02-14T04:21:22;1.10;50.70
4054;DHT22;2042;47.956;9.222;2024-02-14T04:23:48;1.20;50.90
4054;DHT22;2042;47.956;9.222;2024-02-14T04:26:23;1.40;51.20
4054;DHT22;2042;47.956;9.222;2024-02-14T04:28:48;1.50;51.50
4054;DHT22;2042;47.956;9.222;2024-02-14T04:31:14;1.60;52.00
4054;DHT22;2042;47.956;9.222;2024-02-14T04:33:40;1.80;52.50
4054;DHT22;2042;47.956;9.222;2024-02-14T04:36:06;1.90;52.80
4054;DHT22;2042;47.956;9.222;2024-02-14T04:38:31;2.00;53.00
4054;DHT22;2042;47.956;9.222;2024-02-14T04:40:58;2.10;53.30
4054;DHT22;2042;47.956;9.222;2024-02-14T04:43:25;2.20;53.60
4054;DHT22;2042;47.956;9.222;2024-02-14T04:45:52;2.30;53.80
4054;DHT22;2042;47.956;9.222;2024-02-14T04:48:18;2.40;53.90
4054;DHT22;2042;47.956;9.222;2024-02-14T04:50:43;2.40;54.00
4054;DHT22;2042;47.956;9.222;2024-02-14T04:53:09;2.50;54.00
4054;DHT22;2042;47.956;9.222;2024-02-14T04:55:35;2.40;53.50
4054;DHT22;2042;47.956;9.222;2024-02-14T04:58:01;2.40;53.40
4054;DHT22;2042;47.956;9.222;2024-02-14T05:00:27;2.40;53.50
4054;DHT22;2042;47.956;9.222;2024-02-14T05:02:53;2.40;53.70
4054;DHT22;2042;47.956;9.222;2024-02-14T05:05:19;2.40;53.70
4054;DHT22;2042;47.956;9.222;2024-02-14T05:07:46;2.40;53.50
4054;DHT22;2042;47.956;9.222;2024-02-14T05:10:12;2.30;52.80
4054;DHT22;2042;47.956;9.222;2024-02-14T05:12:37;2.20;52.00
4054;DHT22;2042;47.956;9.222;2024-02-14T05:15:03;2.10;51.70
4054;DHT22;2042;47.956;9.222;2024-02-14T05:17:29;1.90;51.50
4054;DHT22;2042;47.956;9.222;2024-02-14T05:19:55;1.90;51.60
4054;DHT22;2042;47.956;9.222;2024-02-14T05:22:22;2.00;52.40
4054;DHT22;2042;47.956;9.222;2024-02-14T05:24:48;2.20;53.30
4054;DHT22;2042;47.956;9.222;2024-02-14T05:27:13;2.30;53.80
4054;DHT22;2042;47.956;9.222;2024-02-14T05:29:39;2.50;54.20
4054;DHT22;2042;47.956;9.222;2024-02-14T05:32:05;2.50;54.30
4054;DHT22;2042;47.956;9.222;2024-02-14T05:34:31;2.60;54.20
4054;DHT22;2042;47.956;9.222;2024-02-14T05:36:57;2.60;54.20
4054;DHT22;2042;47.956;9.222;2024-02-14T05:39:22;2.60;54.30
4054;DHT22;2042;47.956;9.222;2024-02-14T05:41:48;2.60;54.50
4054;DHT22;2042;47.956;9.222;2024-02-14T05:44:20;2.70;54.80
4054;DHT22;2042;47.956;9.222;2024-02-14T05:46:47;2.80;55.70
4054;DHT22;2042;47.956;9.222;2024-02-14T05:49:13;2.80;55.20
4054;DHT22;2042;47.956;9.222;2024-02-14T05:51:39;2.90;55.40
4054;DHT22;2042;47.956;9.222;2024-02-14T05:54:06;2.90;56.00
4054;DHT22;2042;47.956;9.222;2024-02-14T05:56:31;3.00;55.60
4054;DHT22;2042;47.956;9.222;2024-02-14T05:58:57;3.00;55.60
4054;DHT22;2042;47.956;9.222;2024-02-14T06:01:23;3.00;55.60
4054;DHT22;2042;47.956;9.222;2024-02-14T06:03:48;3.00;55.60
4054;DHT22;2042;47.956;9.222;2024-02-14T06:06:14;3.00;55.50
4054;DHT22;2042;47.956;9.222;2024-02-14T06:08:40;2.90;55.20
4054;DHT22;2042;47.956;9.222;2024-02-14T06:11:06;2.80;54.70
4054;DHT22;2042;47.956;9.222;2024-02-14T06:13:31;2.70;54.20
4054;DHT22;2042;47.956;9.222;2024-02-14T06:15:57;2.60;53.90
4054;DHT22;2042;47.956;9.222;2024-02-14T06:18:22;2.70;54.40
4054;DHT22;2042;47.956;9.222;2024-02-14T06:20:49;2.80;55.00
4054;DHT22;2042;47.956;9.222;2024-02-14T06:23:15;2.90;55.40
4054;DHT22;2042;47.956;9.222;2024-02-14T06:25:40;2.90;55.50
4054;DHT22;2042;47.956;9.222;2024-02-14T06:28:06;3.00;55.90
4054;DHT22;2042;47.956;9.222;2024-02-14T06:30:32;3.10;56.10
4054;DHT22;2042;47.956;9.222;2024-02-14T06:32:57;3.20;56.20
4054;DHT22;2042;47.956;9.222;2024-02-14T06:35:26;3.30;56.10
4054;DHT22;2042;47.956;9.222;2024-02-14T06:37:52;3.30;55.90
4054;DHT22;2042;47.956;9.222;2024-02-14T06:40:17;3.30;55.80
4054;DHT22;2042;47.956;9.222;2024-02-14T06:42:44;3.40;55.80
4054;DHT22;2042;47.956;9.222;2024-02-14T06:45:09;3.50;55.60
4054;DHT22;2042;47.956;9.222;2024-02-14T06:47:35;3.50;55.20
4054;DHT22;2042;47.956;9.222;2024-02-14T06:50:00;3.60;54.50
4054;DHT22;2042;47.956;9.222;2024-02-14T06:52:26;3.60;53.40
4054;DHT22;2042;47.956;9.222;2024-02-14T06:54:52;3.70;53.20
4054;DHT22;2042;47.956;9.222;2024-02-14T06:57:17;3.70;52.90
4054;DHT22;2042;47.956;9.222;2024-02-14T06:59:43;3.70;52.40
4054;DHT22;2042;47.956;9.222;2024-02-14T07:02:09;3.80;51.60
4054;DHT22;2042;47.956;9.222;2024-02-14T07:04:34;3.80;50.70
4054;DHT22;2042;47.956;9.222;2024-02-14T07:07:00;3.80;49.30
4054;DHT22;2042;47.956;9.222;2024-02-14T07:09:26;3.90;48.50
4054;DHT22;2042;47.956;9.222;2024-02-14T07:11:52;3.90;46.50
4054;DHT22;2042;47.956;9.222;2024-02-14T07:14:23;4.00;44.80
4054;DHT22;2042;47.956;9.222;2024-02-14T07:16:48;4.10;42.90
4054;DHT22;2042;47.956;9.222;2024-02-14T07:19:14;4.20;41.00
4054;DHT22;2042;47.956;9.222;2024-02-14T07:21:40;4.20;36.40
4054;DHT22;2042;47.956;9.222;2024-02-14T07:24:05;4.30;32.90
4054;DHT22;2042;47.956;9.222;2024-02-14T07:26:32;4.30;29.70
4054;DHT22;2042;47.956;9.222;2024-02-14T07:28:58;4.40;26.80
4054;DHT22;2042;47.956;9.222;2024-02-14T07:31:24;4.50;23.60
4054;DHT22;2042;47.956;9.222;2024-02-14T07:33:49;4.60;20.80
4054;DHT22;2042;47.956;9.222;2024-02-14T07:36:18;4.60;16.90
4054;DHT22;2042;47.956;9.222;2024-02-14T07:38:44;4.70;15.30
4054;DHT22;2042;47.956;9.222;2024-02-14T07:41:10;4.80;12.90
4054;DHT22;2042;47.956;9.222;2024-02-14T07:43:36;4.90;10.40
4054;DHT22;2042;47.956;9.222;2024-02-14T07:46:01;4.90;9.20
4054;DHT22;2042;47.956;9.222;2024-02-14T07:48:27;5.10;7.50
4054;DHT22;2042;47.956;9.222;2024-02-14T07:50:52;5.20;4.30
4054;DHT22;2042;47.956;9.222;2024-02-14T07:53:18;5.30;2.10
4054;DHT22;2042;47.956;9.222;2024-02-14T07:55:44;5.40;1.00
4054;DHT22;2042;47.956;9.222;2024-02-14T07:58:09;5.40;1.00
4054;DHT22;2042;47.956;9.222;2024-02-14T08:00:35;5.40;1.00
4054;DHT22;2042;47.956;9.222;2024-02-14T08:03:00;5.40;1.00
4054;DHT22;2042;47.956;9.222;2024-02-14T08:05:29;5.50;1.00
4054;DHT22;2042;47.956;9.222;2024-02-14T08:07:54;5.80;1.00
4054;DHT22;2042;47.956;9.222;2024-02-14T08:10:20;6.00;1.00
4054;DHT22;2042;47.956;9.222;2024-02-14T08:12:46;6.30;1.00
4054;DHT22;2042;47.956;9.222;2024-02-14T08:15:13;6.60;1.00
4054;DHT22;2042;47.956;9.222;2024-02-14T08:17:38;6.70;1.00
4054;DHT22;2042;47.956;9.222;2024-02-14T08:20:04;6.60;1.00
4054;DHT22;2042;47.956;9.222;2024-02-14T08:22:30;6.60;1.00
4054;DHT22;2042;47.956;9.222;2024-02-14T08:24:57;6.70;1.00
4054;DHT22;2042;47.956;9.222;2024-02-14T08:27:23;6.70;1.00
4054;DHT22;2042;47.956;9.222;2024-02-14T08:29:48;6.80;1.00
4054;DHT22;2042;47.956;9.222;2024-02-14T08:32:14;6.70;1.00
4054;DHT22;2042;47.956;9.222;2024-02-14T08:34:40;6.60;1.00
4054;DHT22;2042;47.956;9.222;2024-02-14T08:37:05;6.50;1.00
4054;DHT22;2042;47.956;9.222;2024-02-14T08:39:32;6.50;1.00
4054;DHT22;2042;47.956;9.222;2024-02-14T08:41:57;6.50;1.00
4054;DHT22;2042;47.956;9.222;2024-02-14T08:44:24;7.00;1.00
4054;DHT22;2042;47.956;9.222;2024-02-14T08:46:50;7.80;1.00
4054;DHT22;2042;47.956;9.222;2024-02-14T08:49:16;8.70;1.00
4054;DHT22;2042;47.956;9.222;2024-02-14T08:51:41;10.10;1.00
4054;DHT22;2042;47.956;9.222;2024-02-14T08:54:09;11.00;1.00
4054;DHT22;2042;47.956;9.222;2024-02-14T08:56:35;10.50;1.00
4054;DHT22;2042;47.956;9.222;2024-02-14T08:59:02;9.90;1.00
4054;DHT22;2042;47.956;9.222;2024-02-14T09:01:28;9.60;1.00
4054;DHT22;2042;47.956;9.222;2024-02-14T09:03:54;9.30;1.00
4054;DHT22;2042;47.956;9.222;2024-02-14T09:06:21;9.10;1.00
4054;DHT22;2042;47.956;9.222;2024-02-14T09:08:47;8.80;1.00
4054;DHT22;2042;47.956;9.222;2024-02-14T09:11:13;8.70;1.00
4054;DHT22;2042;47.956;9.222;2024-02-14T09:13:39;8.80;1.00
4054;DHT22;2042;47.956;9.222;2024-02-14T09:16:08;8.70;1.00
4054;DHT22;2042;47.956;9.222;2024-02-14T09:18:34;8.80;1.00
4054;DHT22;2042;47.956;9.222;2024-02-14T09:21:00;8.70;1.00
4054;DHT22;2042;47.956;9.222;2024-02-14T09:23:29;8.80;1.00
4054;DHT22;2042;47.956;9.222;2024-02-14T09:25:55;8.70;1.00
4054;DHT22;2042;47.956;9.222;2024-02-14T09:28:22;8.60;1.00
4054;DHT22;2042;47.956;9.222;2024-02-14T09:30:48;8.70;1.00
4054;DHT22;2042;47.956;9.222;2024-02-14T09:33:14;8.80;1.00
4054;DHT22;2042;47.956;9.222;2024-02-14T09:35:40;8.90;1.00
4054;DHT22;2042;47.956;9.222;2024-02-14T09:38:10;8.90;1.00
4054;DHT22;2042;47.956;9.222;2024-02-14T09:40:38;9.20;1.00
4054;DHT22;2042;47.956;9.222;2024-02-14T09:43:06;9.20;1.00
4054;DHT22;2042;47.956;9.222;2024-02-14T09:45:37;9.40;1.00
4054;DHT22;2042;47.956;9.222;2024-02-14T09:48:03;9.40;1.00
4054;DHT22;2042;47.956;9.222;2024-02-14T09:50:30;9.20;1.00
4054;DHT22;2042;47.956;9.222;2024-02-14T09:52:57;9.00;1.00
4054;DHT22;2042;47.956;9.222;2024-02-14T09:55:24;8.80;1.00
4054;DHT22;2042;47.956;9.222;2024-02-14T09:57:51;8.80;1.00
4054;DHT22;2042;47.956;9.222;2024-02-14T10:00:18;8.80;1.00
4054;DHT22;2042;47.956;9.222;2024-02-14T10:02:44;8.80;1.00
4054;DHT22;2042;47.956;9.222;2024-02-14T10:05:10;9.00;1.00
4054;DHT22;2042;47.956;9.222;2024-02-14T10:07:43;9.30;1.00
4054;DHT22;2042;47.956;9.222;2024-02-14T10:10:09;9.50;1.00
4054;DHT22;2042;47.956;9.222;2024-02-14T10:12:36;9.40;1.00
4054;DHT22;2042;47.956;9.222;2024-02-14T10:15:02;9.30;1.00
4054;DHT22;2042;47.956;9.222;2024-02-14T10:17:30;9.20;1.00
4054;DHT22;2042;47.956;9.222;2024-02-14T10:19:58;9.30;1.00
4054;DHT22;2042;47.956;9.222;2024-02-14T10:22:24;9.40;1.00
4054;DHT22;2042;47.956;9.222;2024-02-14T10:24:51;9.50;1.00
4054;DHT22;2042;47.956;9.222;2024-02-14T10:27:17;9.70;1.00
4054;DHT22;2042;47.956;9.222;2024-02-14T10:29:43;9.80;1.00
4054;DHT22;2042;47.956;9.222;2024-02-14T10:32:09;9.90;1.00
4054;DHT22;2042;47.956;9.222;2024-02-14T10:34:37;10.00;1.00
4054;DHT22;2042;47.956;9.222;2024-02-14T10:37:05;10.30;1.00
4054;DHT22;2042;47.956;9.222;2024-02-14T10:39:32;10.60;1.00
4054;DHT22;2042;47.956;9.222;2024-02-14T10:42:01;11.00;1.00
4054;DHT22;2042;47.956;9.222;2024-02-14T10:44:27;11.60;1.00
4054;DHT22;2042;47.956;9.222;2024-02-14T10:46:55;12.20;1.00
4054;DHT22;2042;47.956;9.222;2024-02-14T10:49:22;13.10;1.00
4054;DHT22;2042;47.956;9.222;2024-02-14T10:51:52;14.00;1.00
4054;DHT22;2042;47.956;9.222;2024-02-14T10:54:20;14.40;1.00
4054;DHT22;2042;47.956;9.222;2024-02-14T10:56:49;14.60;1.00
4054;DHT22;2042;47.956;9.222;2024-02-14T10:59:20;14.90;1.00
4054;DHT22;2042;47.956;9.222;2024-02-14T11:01:47;15.00;1.00
4054;DHT22;2042;47.956;9.222;2024-02-14T11:04:12;14.80;1.00
4054;DHT22;2042;47.956;9.222;2024-02-14T11:06:48;14.90;1.00
4054;DHT22;2042;47.956;9.222;2024-02-14T11:09:14;15.30;1.00
4054;DHT22;2042;47.956;9.222;2024-02-14T11:11:43;15.60;1.00
4054;DHT22;2042;47.956;9.222;2024-02-14T11:14:10;16.00;1.00
4054;DHT22;2042;47.956;9.222;2024-02-14T11:16:38;16.50;1.00
4054;DHT22;2042;47.956;9.222;2024-02-14T11:19:11;16.90;1.00
4054;DHT22;2042;47.956;9.222;2024-02-14T11:21:40;17.20;1.00
4054;DHT22;2042;47.956;9.222;2024-02-14T11:24:10;17.00;1.00
4054;DHT22;2042;47.956;9.222;2024-02-14T11:26:50;17.40;1.00
4054;DHT22;2042;47.956;9.222;2024-02-14T11:29:20;17.80;1.00
4054;DHT22;2042;47.956;9.222;2024-02-14T11:31:46;18.20;1.00
4054;DHT22;2042;47.956;9.222;2024-02-14T11:34:14;18.20;1.00
4054;DHT22;2042;47.956;9.222;2024-02-14T11:36:44;18.30;1.00
4054;DHT22;2042;47.956;9.222;2024-02-14T11:39:13;18.50;1.00
4054;DHT22;2042;47.956;9.222;2024-02-14T11:41:39;19.30;1.00
4054;DHT22;2042;47.956;9.222;2024-02-14T11:44:07;20.50;1.00
4054;DHT22;2042;47.956;9.222;2024-02-14T11:46:36;21.20;1.00
4054;DHT22;2042;47.956;9.222;2024-02-14T11:49:04;21.30;1.00
4054;DHT22;2042;47.956;9.222;2024-02-14T11:51:31;21.50;1.00
4054;DHT22;2042;47.956;9.222;2024-02-14T11:54:00;21.20;1.00
4054;DHT22;2042;47.956;9.222;2024-02-14T11:56:33;20.60;1.00
4054;DHT22;2042;47.956;9.222;2024-02-14T11:59:00;20.90;1.00
4054;DHT22;2042;47.956;9.222;2024-02-14T12:01:31;21.10;1.00
4054;DHT22;2042;47.956;9.222;2024-02-14T12:03:59;21.10;1.00
4054;DHT22;2042;47.956;9.222;2024-02-14T12:06:29;20.80;1.00
4054;DHT22;2042;47.956;9.222;2024-02-14T12:08:57;21.10;1.00
4054;DHT22;2042;47.956;9.222;2024-02-14T12:11:27;21.00;1.00
4054;DHT22;2042;47.956;9.222;2024-02-14T12:13:54;20.90;1.00
4054;DHT22;2042;47.956;9.222;2024-02-14T12:16:20;21.00;1.00
4054;DHT22;2042;47.956;9.222;2024-02-14T12:18:46;20.80;1.00
4054;DHT22;2042;47.956;9.222;2024-02-14T12:21:13;20.80;1.00
4054;DHT22;2042;47.956;9.222;2024-02-14T12:23:39;20.70;1.00
4054;DHT22;2042;47.956;9.222;2024-02-14T12:26:05;21.20;1.00
4054;DHT22;2042;47.956;9.222;2024-02-14T12:28:31;21.80;1.00
4054;DHT22;2042;47.956;9.222;2024-02-14T12:30:57;22.30;1.00
4054;DHT22;2042;47.956;9.222;2024-02-14T12:33:27;22.90;1.00
4054;DHT22;2042;47.956;9.222;2024-02-14T12:35:56;23.40;1.00
4054;DHT22;2042;47.956;9.222;2024-02-14T12:38:23;23.60;1.00
4054;DHT22;2042;47.956;9.222;2024-02-14T12:40:50;23.30;1.00
4054;DHT22;2042;47.956;9.222;2024-02-14T12:43:17;23.00;1.00
4054;DHT22;2042;47.956;9.222;2024-02-14T12:45:43;22.50;1.00
4054;DHT22;2042;47.956;9.222;2024-02-14T12:48:10;22.50;1.00
4054;DHT22;2042;47.956;9.222;2024-02-14T12:53:04;23.50;1.00
4054;DHT22;2042;47.956;9.222;2024-02-14T12:55:30;24.30;1.00
4054;DHT22;2042;47.956;9.222;2024-02-14T12:57:57;23.40;1.00
4054;DHT22;2042;47.956;9.222;2024-02-14T13:00:24;23.20;1.00
4054;DHT22;2042;47.956;9.222;2024-02-14T13:02:50;22.90;1.00
4054;DHT22;2042;47.956;9.222;2024-02-14T13:05:16;22.50;1.00
4054;DHT22;2042;47.956;9.222;2024-02-14T13:07:43;22.10;1.00
4054;DHT22;2042;47.956;9.222;2024-02-14T13:10:09;22.30;1.00
4054;DHT22;2042;47.956;9.222;2024-02-14T13:12:36;21.90;1.00
4054;DHT22;2042;47.956;9.222;2024-02-14T13:15:02;21.70;1.00
4054;DHT22;2042;47.956;9.222;2024-02-14T13:17:29;21.10;1.00
4054;DHT22;2042;47.956;9.222;2024-02-14T13:19:55;21.10;1.00
4054;DHT22;2042;47.956;9.222;2024-02-14T13:22:21;21.40;1.00
4054;DHT22;2042;47.956;9.222;2024-02-14T13:24:47;21.60;1.00
4054;DHT22;2042;47.956;9.222;2024-02-14T13:27:12;21.00;1.00
4054;DHT22;2042;47.956;9.222;2024-02-14T13:29:39;20.10;1.00
4054;DHT22;2042;47.956;9.222;2024-02-14T13:32:05;18.70;1.00
4054;DHT22;2042;47.956;9.222;2024-02-14T13:34:33;18.70;1.00
4054;DHT22;2042;47.956;9.222;2024-02-14T13:36:59;17.50;1.00
4054;DHT22;2042;47.956;9.222;2024-02-14T13:41:51;15.50;1.00
4054;DHT22;2042;47.956;9.222;2024-02-14T13:44:17;14.70;1.00
4054;DHT22;2042;47.956;9.222;2024-02-14T13:46:45;14.60;1.00
4054;DHT22;2042;47.956;9.222;2024-02-14T13:49:16;14.20;1.00
4054;DHT22;2042;47.956;9.222;2024-02-14T13:51:56;13.90;1.00
4054;DHT22;2042;47.956;9.222;2024-02-14T13:54:23;13.70;1.00
4054;DHT22;2042;47.956;9.222;2024-02-14T13:56:49;13.30;1.00
4054;DHT22;2042;47.956;9.222;2024-02-14T13:59:16;13.00;1.00
4054;DHT22;2042;47.956;9.222;2024-02-14T14:01:42;12.90;1.00
4054;DHT22;2042;47.956;9.222;2024-02-14T14:04:08;12.90;1.00
4054;DHT22;2042;47.956;9.222;2024-02-14T14:06:33;12.70;1.00
4054;DHT22;2042;47.956;9.222;2024-02-14T14:09:00;12.60;1.00
4054;DHT22;2042;47.956;9.222;2024-02-14T14:11:28;12.50;1.00
4054;DHT22;2042;47.956;9.222;2024-02-14T14:13:53;12.40;1.00
4054;DHT22;2042;47.956;9.222;2024-02-14T14:16:19;12.30;1.00
4054;DHT22;2042;47.956;9.222;2024-02-14T14:18:48;12.20;1.00
4054;DHT22;2042;47.956;9.222;2024-02-14T14:21:14;12.20;1.00
4054;DHT22;2042;47.956;9.222;2024-02-14T14:23:40;12.10;1.00
4054;DHT22;2042;47.956;9.222;2024-02-14T14:26:06;12.10;1.00
4054;DHT22;2042;47.956;9.222;2024-02-14T14:28:32;12.10;1.00
4054;DHT22;2042;47.956;9.222;2024-02-14T14:30:57;12.00;1.00
4054;DHT22;2042;47.956;9.222;2024-02-14T14:33:25;11.90;1.00
4054;DHT22;2042;47.956;9.222;2024-02-14T14:35:51;11.90;1.00
4054;DHT22;2042;47.956;9.222;2024-02-14T14:38:19;11.80;1.00
4054;DHT22;2042;47.956;9.222;2024-02-14T14:40:44;11.80;1.00
4054;DHT22;2042;47.956;9.222;2024-02-14T14:43:13;11.90;1.00
4054;DHT22;2042;47.956;9.222;2024-02-14T14:45:39;11.90;1.00
4054;DHT22;2042;47.956;9.222;2024-02-14T14:48:06;11.90;1.00
4054;DHT22;2042;47.956;9.222;2024-02-14T14:50:34;11.90;1.00
4054;DHT22;2042;47.956;9.222;2024-02-14T14:53:01;11.90;1.00
4054;DHT22;2042;47.956;9.222;2024-02-14T14:55:56;11.90;1.00
4054;DHT22;2042;47.956;9.222;2024-02-14T14:58:22;12.00;1.00
4054;DHT22;2042;47.956;9.222;2024-02-14T15:00:52;12.20;1.00
4054;DHT22;2042;47.956;9.222;2024-02-14T15:03:20;12.30;1.00
4054;DHT22;2042;47.956;9.222;2024-02-14T15:05:46;12.40;1.00
4054;DHT22;2042;47.956;9.222;2024-02-14T15:08:12;12.40;1.00
4054;DHT22;2042;47.956;9.222;2024-02-14T15:10:38;12.30;1.00
4054;DHT22;2042;47.956;9.222;2024-02-14T15:13:06;12.10;1.00
4054;DHT22;2042;47.956;9.222;2024-02-14T15:15:34;12.10;1.00
4054;DHT22;2042;47.956;9.222;2024-02-14T15:18:00;12.00;1.00
4054;DHT22;2042;47.956;9.222;2024-02-14T15:20:26;11.90;1.00
4054;DHT22;2042;47.956;9.222;2024-02-14T15:22:51;11.80;1.00
4054;DHT22;2042;47.956;9.222;2024-02-14T15:25:17;11.70;1.00
4054;DHT22;2042;47.956;9.222;2024-02-14T15:27:42;11.70;1.00
4054;DHT22;2042;47.956;9.222;2024-02-14T15:30:23;11.60;1.00
4054;DHT22;2042;47.956;9.222;2024-02-14T15:33:08;11.50;1.00
4054;DHT22;2042;47.956;9.222;2024-02-14T15:35:50;11.40;1.00
4054;DHT22;2042;47.956;9.222;2024-02-14T15:38:16;11.30;1.00
4054;DHT22;2042;47.956;9.222;2024-02-14T15:40:47;11.20;1.00
4054;DHT22;2042;47.956;9.222;2024-02-14T15:43:13;11.10;1.00
4054;DHT22;2042;47.956;9.222;2024-02-14T15:45:40;11.00;1.00
4054;DHT22;2042;47.956;9.222;2024-02-14T15:48:06;10.90;1.00
4054;DHT22;2042;47.956;9.222;2024-02-14T15:50:33;10.80;1.00
4054;DHT22;2042;47.956;9.222;2024-02-14T15:52:59;10.70;1.00
4054;DHT22;2042;47.956;9.222;2024-02-14T15:55:25;10.50;1.00
4054;DHT22;2042;47.956;9.222;2024-02-14T15:57:51;10.40;1.00
4054;DHT22;2042;47.956;9.222;2024-02-14T16:00:17;10.40;1.00
4054;DHT22;2042;47.956;9.222;2024-02-14T16:02:42;10.30;1.00
4054;DHT22;2042;47.956;9.222;2024-02-14T16:05:09;10.20;1.00
4054;DHT22;2042;47.956;9.222;2024-02-14T16:07:37;10.20;1.00
4054;DHT22;2042;47.956;9.222;2024-02-14T16:10:03;10.10;1.00
4054;DHT22;2042;47.956;9.222;2024-02-14T16:12:30;10.00;1.00
4054;DHT22;2042;47.956;9.222;2024-02-14T16:14:56;9.90;1.00
4054;DHT22;2042;47.956;9.222;2024-02-14T16:17:22;9.80;1.00
4054;DHT22;2042;47.956;9.222;2024-02-14T16:19:48;9.70;1.00
4054;DHT22;2042;47.956;9.222;2024-02-14T16:22:14;9.70;1.00